sensor_id;sensor_type;location;lat;lon;timestamp;pressure;altitude;pressure_sealevel;temperature;humidity
58385;BME280;44185;47.844;8.966;2023-07-28T00:00:58;95626.91;;;12.84;100.00
58385;BME280;44185;47.844;8.966;2023-07-28T00:03:23;95634.19;;;12.82;100.00
58385;BME280;44185;47.844;8.966;2023-07-28T00:05:49;95628.88;;;12.82;100.00
58385;BME280;44185;47.844;8.966;2023-07-28T00:08:16;95621.59;;;12.84;100.00
58385;BME280;44185;47.844;8.966;2023-07-28T00:10:41;95624.72;;;12.87;100.00
58385;BME280;44185;47.844;8.966;2023-07-28T00:13:06;95614.66;;;12.99;100.00
58385;BME280;44185;47.844;8.966;2023-07-28T00:15:32;95615.28;;;12.93;100.00
58385;BME280;44185;47.844;8.966;2023-07-28T00:17:58;95616.63;;;12.97;100.00
58385;BME280;44185;47.844;8.966;2023-07-28T00:20:23;95616.63;;;12.97;100.00
58385;BME280;44185;47.844;8.966;2023-07-28T00:22:49;95612.97;;;12.98;100.00
58385;BME280;44185;47.844;8.966;2023-07-28T00:25:15;95608.84;;;13.04;100.00
58385;BME280;44185;47.844;8.966;2023-07-28T00:27:41;95605.53;;;13.02;100.00
58385;BME280;44185;47.844;8.966;2023-07-28T00:30:07;95603.84;;;13.01;100.00
58385;BME280;44185;47.844;8.966;2023-07-28T00:32:33;95596.72;;;13.01;100.00
58385;BME280;44185;47.844;8.966;2023-07-28T00:34:58;95591.72;;;12.98;100.00
58385;BME280;44185;47.844;8.966;2023-07-28T00:37:24;95596.38;;;12.96;100.00
58385;BME280;44185;47.844;8.966;2023-07-28T00:39:49;95588.72;;;12.93;100.00
58385;BME280;44185;47.844;8.966;2023-07-28T00:42:16;95600.00;;;12.78;100.00
58385;BME280;44185;47.844;8.966;2023-07-28T00:44:41;95598.66;;;12.74;100.00
58385;BME280;44185;47.844;8.966;2023-07-28T00:47:07;95593.81;;;12.70;100.00
58385;BME280;44185;47.844;8.966;2023-07-28T00:49:33;95589.66;;;12.67;100.00
58385;BME280;44185;47.844;8.966;2023-07-28T00:51:59;95582.69;;;12.57;100.00
58385;BME280;44185;47.844;8.966;2023-07-28T00:54:24;95570.69;;;12.45;100.00
58385;BME280;44185;47.844;8.966;2023-07-28T00:56:50;95572.03;;;12.49;100.00
58385;BME280;44185;47.844;8.966;2023-07-28T00:59:18;95570.56;;;12.55;100.00
58385;BME280;44185;47.844;8.966;2023-07-28T01:01:43;95572.72;;;12.51;100.00
58385;BME280;44185;47.844;8.966;2023-07-28T01:04:09;95573.72;;;12.59;100.00
58385;BME280;44185;47.844;8.966;2023-07-28T01:06:38;95577.03;;;12.61;100.00
58385;BME280;44185;47.844;8.966;2023-07-28T01:09:09;95575.22;;;12.61;100.00
58385;BME280;44185;47.844;8.966;2023-07-28T01:11:37;95574.03;;;12.55;100.00
58385;BME280;44185;47.844;8.966;2023-07-28T01:14:02;95575.53;;;12.50;100.00
58385;BME280;44185;47.844;8.966;2023-07-28T01:16:29;95564.41;;;12.46;100.00
58385;BME280;44185;47.844;8.966;2023-07-28T01:18:55;95569.06;;;12.52;100.00
58385;BME280;44185;47.844;8.966;2023-07-28T01:21:22;95573.22;;;12.55;100.00
58385;BME280;44185;47.844;8.966;2023-07-28T01:23:58;95561.25;;;12.51;100.00
58385;BME280;44185;47.844;8.966;2023-07-28T01:26:30;95562.38;;;12.40;100.00
58385;BME280;44185;47.844;8.966;2023-07-28T01:28:56;95566.69;;;12.41;100.00
58385;BME280;44185;47.844;8.966;2023-07-28T01:31:21;95569.84;;;12.36;100.00
58385;BME280;44185;47.844;8.966;2023-07-28T01:33:47;95567.50;;;12.33;100.00
58385;BME280;44185;47.844;8.966;2023-07-28T01:36:12;95563.88;;;12.42;100.00
58385;BME280;44185;47.844;8.966;2023-07-28T01:38:38;95568.22;;;12.43;100.00
58385;BME280;44185;47.844;8.966;2023-07-28T01:41:03;95561.88;;;12.36;100.00
58385;BME280;44185;47.844;8.966;2023-07-28T01:43:30;95567.47;;;12.25;100.00
58385;BME280;44185;47.844;8.966;2023-07-28T01:45:55;95568.44;;;12.23;100.00
58385;BME280;44185;47.844;8.966;2023-07-28T01:48:21;95568.78;;;12.20;100.00
58385;BME280;44185;47.844;8.966;2023-07-28T01:50:46;95567.50;;;12.33;100.00
58385;BME280;44185;47.844;8.966;2023-07-28T01:53:11;95567.19;;;12.36;100.00
58385;BME280;44185;47.844;8.966;2023-07-28T01:55:37;95570.34;;;12.31;100.00
58385;BME280;44185;47.844;8.966;2023-07-28T01:58:02;95572.63;;;12.26;100.00
58385;BME280;44185;47.844;8.966;2023-07-28T02:00:29;95563.63;;;12.19;100.00
58385;BME280;44185;47.844;8.966;2023-07-28T02:02:55;95576.06;;;12.18;100.00
58385;BME280;44185;47.844;8.966;2023-07-28T02:05:20;95579.09;;;12.32;100.00
58385;BME280;44185;47.844;8.966;2023-07-28T02:07:46;95588.56;;;12.34;100.00
58385;BME280;44185;47.844;8.966;2023-07-28T02:10:11;95584.75;;;12.37;100.00
58385;BME280;44185;47.844;8.966;2023-07-28T02:12:37;95586.72;;;12.27;100.00
58385;BME280;44185;47.844;8.966;2023-07-28T02:15:04;95583.25;;;12.26;100.00
58385;BME280;44185;47.844;8.966;2023-07-28T02:17:31;95580.72;;;12.25;100.00
58385;BME280;44185;47.844;8.966;2023-07-28T02:19:57;95582.41;;;12.26;100.00
58385;BME280;44185;47.844;8.966;2023-07-28T02:22:22;95591.66;;;12.21;100.00
58385;BME280;44185;47.844;8.966;2023-07-28T02:24:48;95587.84;;;12.24;100.00
58385;BME280;44185;47.844;8.966;2023-07-28T02:27:13;95591.97;;;12.18;100.00
58385;BME280;44185;47.844;8.966;2023-07-28T02:29:39;95594.78;;;12.17;100.00
58385;BME280;44185;47.844;8.966;2023-07-28T02:32:05;95595.72;;;12.07;100.00
58385;BME280;44185;47.844;8.966;2023-07-28T02:34:32;95593.88;;;12.08;100.00
58385;BME280;44185;47.844;8.966;2023-07-28T02:36:57;95607.13;;;12.08;100.00
58385;BME280;44185;47.844;8.966;2023-07-28T02:39:23;95610.44;;;12.01;100.00
58385;BME280;44185;47.844;8.966;2023-07-28T02:41:48;95611.09;;;12.04;100.00
58385;BME280;44185;47.844;8.966;2023-07-28T02:44:13;95616.25;;;12.05;100.00
58385;BME280;44185;47.844;8.966;2023-07-28T02:46:39;95614.53;;;11.96;100.00
58385;BME280;44185;47.844;8.966;2023-07-28T02:49:04;95619.06;;;12.04;100.00
58385;BME280;44185;47.844;8.966;2023-07-28T02:51:31;95618.75;;;12.07;100.00
58385;BME280;44185;47.844;8.966;2023-07-28T02:53:57;95622.19;;;11.99;100.00
58385;BME280;44185;47.844;8.966;2023-07-28T02:56:22;95613.56;;;11.97;100.00
58385;BME280;44185;47.844;8.966;2023-07-28T02:58:48;95626.66;;;11.98;100.00
58385;BME280;44185;47.844;8.966;2023-07-28T03:01:14;95628.69;;;12.05;100.00
58385;BME280;44185;47.844;8.966;2023-07-28T03:03:39;95629.72;;;12.12;100.00
58385;BME280;44185;47.844;8.966;2023-07-28T03:06:05;95637.81;;;12.10;100.00
58385;BME280;44185;47.844;8.966;2023-07-28T03:08:32;95648.16;;;12.14;100.00
58385;BME280;44185;47.844;8.966;2023-07-28T03:10:57;95642.84;;;12.14;100.00
58385;BME280;44185;47.844;8.966;2023-07-28T03:13:23;95642.69;;;12.15;100.00
58385;BME280;44185;47.844;8.966;2023-07-28T03:15:48;95643.50;;;12.16;100.00
58385;BME280;44185;47.844;8.966;2023-07-28T03:18:14;95652.31;;;12.16;100.00
58385;BME280;44185;47.844;8.966;2023-07-28T03:20:39;95646.16;;;12.16;100.00
58385;BME280;44185;47.844;8.966;2023-07-28T03:23:04;95648.97;;;12.14;100.00
58385;BME280;44185;47.844;8.966;2023-07-28T03:25:31;95659.88;;;12.11;100.00
58385;BME280;44185;47.844;8.966;2023-07-28T03:27:57;95658.63;;;12.15;100.00
58385;BME280;44185;47.844;8.966;2023-07-28T03:30:22;95660.72;;;12.11;100.00
58385;BME280;44185;47.844;8.966;2023-07-28T03:32:48;95658.38;;;12.08;100.00
58385;BME280;44185;47.844;8.966;2023-07-28T03:35:13;95668.13;;;12.08;100.00
58385;BME280;44185;47.844;8.966;2023-07-28T03:37:39;95663.53;;;12.10;100.00
58385;BME280;44185;47.844;8.966;2023-07-28T03:40:05;95666.47;;;12.07;100.00
58385;BME280;44185;47.844;8.966;2023-07-28T03:42:32;95663.31;;;12.03;100.00
58385;BME280;44185;47.844;8.966;2023-07-28T03:44:58;95677.47;;;12.12;100.00
58385;BME280;44185;47.844;8.966;2023-07-28T03:47:23;95667.59;;;12.22;100.00
58385;BME280;44185;47.844;8.966;2023-07-28T03:49:49;95667.28;;;12.26;100.00
58385;BME280;44185;47.844;8.966;2023-07-28T03:52:14;95661.69;;;12.29;100.00
58385;BME280;44185;47.844;8.966;2023-07-28T03:54:40;95659.75;;;12.39;100.00
58385;BME280;44185;47.844;8.966;2023-07-28T03:57:06;95672.31;;;12.37;100.00
58385;BME280;44185;47.844;8.966;2023-07-28T03:59:33;95669.22;;;12.42;100.00
58385;BME280;44185;47.844;8.966;2023-07-28T04:01:58;95665.75;;;12.50;100.00
58385;BME280;44185;47.844;8.966;2023-07-28T04:04:23;95669.22;;;12.50;100.00
58385;BME280;44185;47.844;8.966;2023-07-28T04:06:49;95670.72;;;12.44;100.00
58385;BME280;44185;47.844;8.966;2023-07-28T04:09:14;95670.22;;;12.49;100.00
58385;BME280;44185;47.844;8.966;2023-07-28T04:11:40;95665.91;;;12.48;100.00
58385;BME280;44185;47.844;8.966;2023-07-28T04:14:06;95668.25;;;12.51;100.00
58385;BME280;44185;47.844;8.966;2023-07-28T04:16:33;95669.44;;;12.57;100.00
58385;BME280;44185;47.844;8.966;2023-07-28T04:18:58;95679.03;;;12.50;100.00
58385;BME280;44185;47.844;8.966;2023-07-28T04:21:24;95680.00;;;12.49;100.00
58385;BME280;44185;47.844;8.966;2023-07-28T04:23:49;95666.25;;;12.53;100.00
58385;BME280;44185;47.844;8.966;2023-07-28T04:26:16;95664.63;;;12.52;100.00
58385;BME280;44185;47.844;8.966;2023-07-28T04:28:41;95662.59;;;12.46;100.00
58385;BME280;44185;47.844;8.966;2023-07-28T04:31:07;95664.75;;;12.51;100.00
58385;BME280;44185;47.844;8.966;2023-07-28T04:33:33;95674.06;;;12.55;100.00
58385;BME280;44185;47.844;8.966;2023-07-28T04:35:59;95669.47;;;12.65;100.00
58385;BME280;44185;47.844;8.966;2023-07-28T04:38:24;95669.09;;;12.52;100.00
58385;BME280;44185;47.844;8.966;2023-07-28T04:40:50;95672.22;;;12.55;100.00
58385;BME280;44185;47.844;8.966;2023-07-28T04:43:15;95675.59;;;12.57;100.00
58385;BME280;44185;47.844;8.966;2023-07-28T04:45:41;95686.25;;;12.66;100.00
58385;BME280;44185;47.844;8.966;2023-07-28T04:48:06;95680.09;;;12.65;100.00
58385;BME280;44185;47.844;8.966;2023-07-28T04:50:33;95681.44;;;12.70;100.00
58385;BME280;44185;47.844;8.966;2023-07-28T04:52:58;95678.47;;;12.73;100.00
58385;BME280;44185;47.844;8.966;2023-07-28T04:55:24;95680.00;;;12.84;100.00
58385;BME280;44185;47.844;8.966;2023-07-28T04:57:49;95664.91;;;12.93;100.00
58385;BME280;44185;47.844;8.966;2023-07-28T05:00:15;95670.56;;;12.98;100.00
58385;BME280;44185;47.844;8.966;2023-07-28T05:02:40;95678.38;;;12.99;100.00
58385;BME280;44185;47.844;8.966;2023-07-28T05:05:06;95677.22;;;13.02;100.00
58385;BME280;44185;47.844;8.966;2023-07-28T05:07:33;95679.94;;;13.19;100.00
58385;BME280;44185;47.844;8.966;2023-07-28T05:09:59;95682.94;;;13.24;100.00
58385;BME280;44185;47.844;8.966;2023-07-28T05:12:24;95682.78;;;13.34;100.00
58385;BME280;44185;47.844;8.966;2023-07-28T05:14:50;95684.63;;;13.50;100.00
58385;BME280;44185;47.844;8.966;2023-07-28T05:17:15;95685.47;;;13.59;100.00
58385;BME280;44185;47.844;8.966;2023-07-28T05:19:41;95684.31;;;13.70;100.00
58385;BME280;44185;47.844;8.966;2023-07-28T05:22:06;95685.50;;;13.76;100.00
58385;BME280;44185;47.844;8.966;2023-07-28T05:24:33;95682.66;;;13.86;100.00
58385;BME280;44185;47.844;8.966;2023-07-28T05:26:58;95689.16;;;14.08;100.00
58385;BME280;44185;47.844;8.966;2023-07-28T05:29:24;95700.09;;;14.22;100.00
58385;BME280;44185;47.844;8.966;2023-07-28T05:31:49;95706.22;;;14.39;100.00
58385;BME280;44185;47.844;8.966;2023-07-28T05:34:15;95711.16;;;14.67;100.00
58385;BME280;44185;47.844;8.966;2023-07-28T05:36:40;95717.72;;;14.97;100.00
58385;BME280;44185;47.844;8.966;2023-07-28T05:39:06;95711.09;;;15.25;100.00
58385;BME280;44185;47.844;8.966;2023-07-28T05:41:33;95713.09;;;15.54;100.00
58385;BME280;44185;47.844;8.966;2023-07-28T05:43:58;95711.72;;;15.82;100.00
58385;BME280;44185;47.844;8.966;2023-07-28T05:46:23;95719.50;;;16.16;100.00
58385;BME280;44185;47.844;8.966;2023-07-28T05:48:49;95709.22;;;16.43;100.00
58385;BME280;44185;47.844;8.966;2023-07-28T05:51:14;95716.88;;;16.76;100.00
58385;BME280;44185;47.844;8.966;2023-07-28T05:53:40;95720.09;;;17.02;100.00
58385;BME280;44185;47.844;8.966;2023-07-28T05:56:05;95715.38;;;17.34;100.00
58385;BME280;44185;47.844;8.966;2023-07-28T05:58:32;95707.31;;;17.72;100.00
58385;BME280;44185;47.844;8.966;2023-07-28T06:00:58;95713.03;;;18.12;100.00
58385;BME280;44185;47.844;8.966;2023-07-28T06:03:24;95718.94;;;18.30;100.00
58385;BME280;44185;47.844;8.966;2023-07-28T06:05:49;95716.50;;;18.13;100.00
58385;BME280;44185;47.844;8.966;2023-07-28T06:08:15;95709.00;;;18.23;100.00
58385;BME280;44185;47.844;8.966;2023-07-28T06:10:40;95714.47;;;18.37;100.00
58385;BME280;44185;47.844;8.966;2023-07-28T06:13:06;95723.81;;;18.48;100.00
58385;BME280;44185;47.844;8.966;2023-07-28T06:15:33;95724.59;;;17.91;100.00
58385;BME280;44185;47.844;8.966;2023-07-28T06:17:58;95721.56;;;17.79;100.00
58385;BME280;44185;47.844;8.966;2023-07-28T06:20:23;95715.84;;;17.82;100.00
58385;BME280;44185;47.844;8.966;2023-07-28T06:22:49;95726.50;;;17.75;100.00
58385;BME280;44185;47.844;8.966;2023-07-28T06:25:14;95717.25;;;17.78;100.00
58385;BME280;44185;47.844;8.966;2023-07-28T06:27:40;95722.16;;;17.74;100.00
58385;BME280;44185;47.844;8.966;2023-07-28T06:30:07;95717.25;;;17.78;100.00
58385;BME280;44185;47.844;8.966;2023-07-28T06:32:34;95727.13;;;17.77;100.00
58385;BME280;44185;47.844;8.966;2023-07-28T06:34:59;95729.19;;;17.75;100.00
58385;BME280;44185;47.844;8.966;2023-07-28T06:37:24;95739.41;;;17.72;100.00
58385;BME280;44185;47.844;8.966;2023-07-28T06:39:50;95742.72;;;17.74;100.00
58385;BME280;44185;47.844;8.966;2023-07-28T06:42:15;95734.25;;;17.70;100.00
58385;BME280;44185;47.844;8.966;2023-07-28T06:44:41;95746.19;;;17.67;100.00
58385;BME280;44185;47.844;8.966;2023-07-28T06:47:06;95751.91;;;17.86;100.00
58385;BME280;44185;47.844;8.966;2023-07-28T06:49:33;95744.06;;;18.29;100.00
58385;BME280;44185;47.844;8.966;2023-07-28T06:51:58;95743.44;;;18.27;100.00
58385;BME280;44185;47.844;8.966;2023-07-28T06:54:24;95746.97;;;18.92;100.00
58385;BME280;44185;47.844;8.966;2023-07-28T06:56:49;95748.28;;;19.03;100.00
58385;BME280;44185;47.844;8.966;2023-07-28T06:59:15;95746.41;;;19.03;100.00
58385;BME280;44185;47.844;8.966;2023-07-28T07:01:40;95756.97;;;19.11;100.00
58385;BME280;44185;47.844;8.966;2023-07-28T07:04:06;95756.34;;;19.09;100.00
58385;BME280;44185;47.844;8.966;2023-07-28T07:06:32;95746.94;;;19.20;100.00
58385;BME280;44185;47.844;8.966;2023-07-28T07:08:58;95751.81;;;19.10;100.00
58385;BME280;44185;47.844;8.966;2023-07-28T07:11:23;95758.25;;;19.16;100.00
58385;BME280;44185;47.844;8.966;2023-07-28T07:13:49;95750.75;;;19.04;100.00
58385;BME280;44185;47.844;8.966;2023-07-28T07:16:14;95746.16;;;19.27;100.00
58385;BME280;44185;47.844;8.966;2023-07-28T07:18:40;95742.56;;;19.69;99.41
58385;BME280;44185;47.844;8.966;2023-07-28T07:21:05;95740.09;;;19.81;96.33
58385;BME280;44185;47.844;8.966;2023-07-28T07:23:32;95740.59;;;20.18;92.83
58385;BME280;44185;47.844;8.966;2023-07-28T07:25:58;95745.34;;;20.50;93.11
58385;BME280;44185;47.844;8.966;2023-07-28T07:28:23;95741.41;;;20.53;87.85
58385;BME280;44185;47.844;8.966;2023-07-28T07:30:49;95745.13;;;20.31;89.67
58385;BME280;44185;47.844;8.966;2023-07-28T07:33:14;95739.56;;;20.26;89.63
58385;BME280;44185;47.844;8.966;2023-07-28T07:35:40;95744.91;;;20.06;92.39
58385;BME280;44185;47.844;8.966;2023-07-28T07:38:05;95744.88;;;19.99;93.83
58385;BME280;44185;47.844;8.966;2023-07-28T07:40:32;95738.47;;;20.00;93.28
58385;BME280;44185;47.844;8.966;2023-07-28T07:42:58;95744.47;;;19.95;94.26
58385;BME280;44185;47.844;8.966;2023-07-28T07:45:25;95744.88;;;19.92;93.83
58385;BME280;44185;47.844;8.966;2023-07-28T07:47:50;95747.13;;;19.88;93.25
58385;BME280;44185;47.844;8.966;2023-07-28T07:50:15;95748.97;;;19.88;95.91
58385;BME280;44185;47.844;8.966;2023-07-28T07:52:41;95756.81;;;19.83;93.99
58385;BME280;44185;47.844;8.966;2023-07-28T07:55:08;95753.50;;;19.74;94.51
58385;BME280;44185;47.844;8.966;2023-07-28T07:57:35;95757.25;;;19.80;96.85
58385;BME280;44185;47.844;8.966;2023-07-28T08:00:01;95764.47;;;19.79;94.86
58385;BME280;44185;47.844;8.966;2023-07-28T08:02:26;95763.63;;;19.78;92.96
58385;BME280;44185;47.844;8.966;2023-07-28T08:04:52;95774.00;;;19.95;95.68
58385;BME280;44185;47.844;8.966;2023-07-28T08:07:18;95767.59;;;19.96;91.66
58385;BME280;44185;47.844;8.966;2023-07-28T08:09:43;95768.22;;;20.05;93.08
58385;BME280;44185;47.844;8.966;2023-07-28T08:12:09;95773.19;;;20.01;92.73
58385;BME280;44185;47.844;8.966;2023-07-28T08:14:35;95773.44;;;20.14;94.87
58385;BME280;44185;47.844;8.966;2023-07-28T08:17:01;95776.91;;;20.07;95.32
58385;BME280;44185;47.844;8.966;2023-07-28T08:19:26;95773.19;;;20.08;96.05
58385;BME280;44185;47.844;8.966;2023-07-28T08:21:52;95767.41;;;19.98;94.14
58385;BME280;44185;47.844;8.966;2023-07-28T08:24:17;95764.91;;;19.96;94.48
58385;BME280;44185;47.844;8.966;2023-07-28T08:26:43;95766.53;;;19.90;93.42
58385;BME280;44185;47.844;8.966;2023-07-28T08:29:08;95771.94;;;19.97;94.14
58385;BME280;44185;47.844;8.966;2023-07-28T08:31:35;95775.28;;;20.13;95.25
58385;BME280;44185;47.844;8.966;2023-07-28T08:34:01;95772.41;;;20.28;92.82
58385;BME280;44185;47.844;8.966;2023-07-28T08:36:26;95768.50;;;20.38;92.87
58385;BME280;44185;47.844;8.966;2023-07-28T08:38:52;95774.47;;;20.47;92.15
58385;BME280;44185;47.844;8.966;2023-07-28T08:41:18;95764.97;;;20.51;92.54
58385;BME280;44185;47.844;8.966;2023-07-28T08:43:44;95772.41;;;20.55;91.83
58385;BME280;44185;47.844;8.966;2023-07-28T08:46:09;95768.91;;;20.48;91.62
58385;BME280;44185;47.844;8.966;2023-07-28T08:48:36;95777.38;;;20.59;90.91
58385;BME280;44185;47.844;8.966;2023-07-28T08:51:02;95772.59;;;20.81;90.99
58385;BME280;44185;47.844;8.966;2023-07-28T08:53:28;95774.44;;;21.01;90.19
58385;BME280;44185;47.844;8.966;2023-07-28T08:55:53;95765.09;;;20.97;90.61
58385;BME280;44185;47.844;8.966;2023-07-28T08:58:20;95764.25;;;21.23;90.11
58385;BME280;44185;47.844;8.966;2023-07-28T09:00:46;95769.19;;;21.27;89.19
58385;BME280;44185;47.844;8.966;2023-07-28T09:03:12;95773.13;;;21.31;88.05
58385;BME280;44185;47.844;8.966;2023-07-28T09:05:39;95786.94;;;21.48;86.71
58385;BME280;44185;47.844;8.966;2023-07-28T09:08:04;95785.97;;;21.75;86.94
58385;BME280;44185;47.844;8.966;2023-07-28T09:10:40;95783.75;;;21.65;86.43
58385;BME280;44185;47.844;8.966;2023-07-28T09:13:09;95781.91;;;21.59;87.26
58385;BME280;44185;47.844;8.966;2023-07-28T09:15:35;95779.25;;;21.52;86.77
58385;BME280;44185;47.844;8.966;2023-07-28T09:18:00;95788.78;;;21.54;86.66
58385;BME280;44185;47.844;8.966;2023-07-28T09:20:33;95789.19;;;21.51;87.74
58385;BME280;44185;47.844;8.966;2023-07-28T09:23:01;95785.84;;;21.56;88.18
58385;BME280;44185;47.844;8.966;2023-07-28T09:25:28;95789.56;;;21.62;85.80
58385;BME280;44185;47.844;8.966;2023-07-28T09:27:54;95784.31;;;21.74;86.97
58385;BME280;44185;47.844;8.966;2023-07-28T09:30:19;95787.66;;;21.76;84.31
58385;BME280;44185;47.844;8.966;2023-07-28T09:32:47;95782.88;;;21.71;84.59
58385;BME280;44185;47.844;8.966;2023-07-28T09:35:13;95783.34;;;21.61;83.21
58385;BME280;44185;47.844;8.966;2023-07-28T09:37:41;95777.81;;;21.95;84.18
58385;BME280;44185;47.844;8.966;2023-07-28T09:40:10;95785.88;;;22.02;82.30
58385;BME280;44185;47.844;8.966;2023-07-28T09:42:35;95779.97;;;22.44;85.49
58385;BME280;44185;47.844;8.966;2023-07-28T09:45:01;95791.03;;;22.36;83.10
58385;BME280;44185;47.844;8.966;2023-07-28T09:47:27;95783.16;;;22.60;80.57
58385;BME280;44185;47.844;8.966;2023-07-28T09:49:57;95789.06;;;22.76;80.06
58385;BME280;44185;47.844;8.966;2023-07-28T09:52:24;95779.78;;;22.91;78.16
58385;BME280;44185;47.844;8.966;2023-07-28T09:54:53;95780.47;;;22.86;78.41
58385;BME280;44185;47.844;8.966;2023-07-28T09:57:23;95773.50;;;22.78;79.52
58385;BME280;44185;47.844;8.966;2023-07-28T09:59:52;95769.72;;;22.53;78.26
58385;BME280;44185;47.844;8.966;2023-07-28T10:02:19;95766.69;;;22.43;80.11
58385;BME280;44185;47.844;8.966;2023-07-28T10:04:45;95770.72;;;22.33;79.05
58385;BME280;44185;47.844;8.966;2023-07-28T10:07:11;95765.44;;;22.20;79.10
58385;BME280;44185;47.844;8.966;2023-07-28T10:09:37;95767.09;;;22.21;79.81
58385;BME280;44185;47.844;8.966;2023-07-28T10:12:04;95767.13;;;22.14;80.21
58385;BME280;44185;47.844;8.966;2023-07-28T10:14:35;95766.25;;;22.20;82.23
58385;BME280;44185;47.844;8.966;2023-07-28T10:17:01;95762.63;;;22.33;81.97
58385;BME280;44185;47.844;8.966;2023-07-28T10:19:26;95771.38;;;22.54;82.95
58385;BME280;44185;47.844;8.966;2023-07-28T10:22:10;95768.75;;;22.73;81.67
58385;BME280;44185;47.844;8.966;2023-07-28T10:24:53;95770.16;;;23.20;75.85
58385;BME280;44185;47.844;8.966;2023-07-28T10:27:32;95759.47;;;23.51;75.91
58385;BME280;44185;47.844;8.966;2023-07-28T10:30:02;95768.16;;;23.53;74.48
58385;BME280;44185;47.844;8.966;2023-07-28T10:32:28;95764.38;;;23.54;73.63
58385;BME280;44185;47.844;8.966;2023-07-28T10:35:00;95760.25;;;23.52;68.50
58385;BME280;44185;47.844;8.966;2023-07-28T10:37:26;95760.91;;;23.47;67.65
58385;BME280;44185;47.844;8.966;2023-07-28T10:40:23;95768.34;;;23.33;67.74
58385;BME280;44185;47.844;8.966;2023-07-28T10:42:49;95761.31;;;23.51;67.67
58385;BME280;44185;47.844;8.966;2023-07-28T10:45:16;95766.31;;;23.66;64.93
58385;BME280;44185;47.844;8.966;2023-07-28T10:47:42;95764.00;;;23.70;63.03
58385;BME280;44185;47.844;8.966;2023-07-28T10:50:09;95765.06;;;24.11;63.98
58385;BME280;44185;47.844;8.966;2023-07-28T10:52:34;95758.81;;;24.42;62.04
58385;BME280;44185;47.844;8.966;2023-07-28T10:55:04;95763.53;;;24.47;60.93
58385;BME280;44185;47.844;8.966;2023-07-28T10:57:29;95772.03;;;24.19;59.37
58385;BME280;44185;47.844;8.966;2023-07-28T10:59:59;95767.78;;;24.24;59.06
58385;BME280;44185;47.844;8.966;2023-07-28T11:02:27;95760.09;;;24.39;57.85
58385;BME280;44185;47.844;8.966;2023-07-28T11:04:52;95759.78;;;24.60;58.80
58385;BME280;44185;47.844;8.966;2023-07-28T11:07:18;95763.44;;;24.65;59.13
58385;BME280;44185;47.844;8.966;2023-07-28T11:09:45;95757.75;;;24.79;58.85
58385;BME280;44185;47.844;8.966;2023-07-28T11:12:10;95756.81;;;24.61;59.13
58385;BME280;44185;47.844;8.966;2023-07-28T11:14:36;95756.94;;;24.54;57.14
58385;BME280;44185;47.844;8.966;2023-07-28T11:17:01;95750.25;;;24.57;57.52
58385;BME280;44185;47.844;8.966;2023-07-28T11:19:28;95763.44;;;24.65;58.37
58385;BME280;44185;47.844;8.966;2023-07-28T11:21:55;95743.19;;;24.44;58.15
58385;BME280;44185;47.844;8.966;2023-07-28T11:24:21;95755.16;;;24.48;58.76
58385;BME280;44185;47.844;8.966;2023-07-28T11:26:46;95760.66;;;24.29;58.13
58385;BME280;44185;47.844;8.966;2023-07-28T11:29:12;95759.34;;;24.20;59.13
58385;BME280;44185;47.844;8.966;2023-07-28T11:31:38;95756.63;;;24.20;57.64
58385;BME280;44185;47.844;8.966;2023-07-28T11:34:12;95762.13;;;24.13;57.10
58385;BME280;44185;47.844;8.966;2023-07-28T11:36:39;95760.22;;;24.02;57.39
58385;BME280;44185;47.844;8.966;2023-07-28T11:39:06;95750.47;;;24.00;57.30
58385;BME280;44185;47.844;8.966;2023-07-28T11:41:32;95759.75;;;24.05;56.84
58385;BME280;44185;47.844;8.966;2023-07-28T11:43:58;95750.59;;;24.06;57.51
58385;BME280;44185;47.844;8.966;2023-07-28T11:46:34;95752.94;;;24.02;59.30
58385;BME280;44185;47.844;8.966;2023-07-28T11:49:07;95757.41;;;24.08;58.04
58385;BME280;44185;47.844;8.966;2023-07-28T11:51:37;95751.44;;;24.06;59.08
58385;BME280;44185;47.844;8.966;2023-07-28T11:54:04;95753.09;;;24.19;58.89
58385;BME280;44185;47.844;8.966;2023-07-28T11:56:29;95748.75;;;24.18;58.88
58385;BME280;44185;47.844;8.966;2023-07-28T11:58:55;95744.53;;;24.22;60.07
58385;BME280;44185;47.844;8.966;2023-07-28T12:01:21;95740.16;;;24.21;60.01
58385;BME280;44185;47.844;8.966;2023-07-28T12:03:46;95726.16;;;24.00;59.85
58385;BME280;44185;47.844;8.966;2023-07-28T12:06:12;95725.56;;;23.98;61.61
58385;BME280;44185;47.844;8.966;2023-07-28T12:08:37;95736.25;;;24.05;60.39
58385;BME280;44185;47.844;8.966;2023-07-28T12:11:04;95734.38;;;24.06;62.23
58385;BME280;44185;47.844;8.966;2023-07-28T12:13:30;95738.88;;;24.12;61.78
58385;BME280;44185;47.844;8.966;2023-07-28T12:15:55;95734.44;;;24.18;62.66
58385;BME280;44185;47.844;8.966;2023-07-28T12:18:21;95734.75;;;24.21;61.59
58385;BME280;44185;47.844;8.966;2023-07-28T12:20:48;95737.75;;;24.32;61.24
58385;BME280;44185;47.844;8.966;2023-07-28T12:23:15;95727.72;;;24.20;60.20
58385;BME280;44185;47.844;8.966;2023-07-28T12:25:41;95728.94;;;24.37;62.17
58385;BME280;44185;47.844;8.966;2023-07-28T12:28:08;95715.53;;;24.42;60.06
58385;BME280;44185;47.844;8.966;2023-07-28T12:30:34;95721.31;;;24.46;60.78
58385;BME280;44185;47.844;8.966;2023-07-28T12:32:59;95727.88;;;24.74;61.57
58385;BME280;44185;47.844;8.966;2023-07-28T12:35:25;95729.41;;;24.82;62.92
58385;BME280;44185;47.844;8.966;2023-07-28T12:37:50;95720.28;;;24.71;60.77
58385;BME280;44185;47.844;8.966;2023-07-28T12:40:16;95718.38;;;24.59;61.84
58385;BME280;44185;47.844;8.966;2023-07-28T12:42:41;95724.25;;;24.44;60.29
58385;BME280;44185;47.844;8.966;2023-07-28T12:45:09;95732.25;;;24.39;62.09
58385;BME280;44185;47.844;8.966;2023-07-28T12:47:35;95727.84;;;24.26;63.26
58385;BME280;44185;47.844;8.966;2023-07-28T12:50:00;95723.41;;;24.31;63.14